Goodsoil, Canada
Current Conditions -  °F | °C
As of 6:00 PM on Friday 21 Nov 2014 (Local Time) from CYLJ Reporting Station
Haze Haze  
Wind Chill: 15°   Ceiling: 600
Heat Index: 25°   Visibility: 5mi
Dew Point: 21°   Wind: 9mph
Humidity: 86%   Direction: 50°NE
Pressure: 29.6"   Gusts: NA
Location:  54.4°N, 109.23°W
Report Text: CYLJ 220000Z 05008KT 5SM BR BKN006 BKN010 M04/M06 A2960 RMK SC6SC1 SN COV/MEDIUM PACK/LAST OB/NXT 221200 UTC SLP050
Loading
Personal Weather Stations






























Interactive Weather Map New forecast layout! Learn more

10-Day Weather Forecast

Advertisements
Track Severe Weather on mobile